createdAt,value
2018-06-07T00:00:03.907Z,-48
2018-06-07T00:02:30.844Z,-48
2018-06-07T00:04:57.807Z,-48
2018-06-07T00:07:24.742Z,-48
2018-06-07T00:09:51.666Z,-48
2018-06-07T00:12:18.570Z,-49
2018-06-07T00:14:45.538Z,-49
2018-06-07T00:17:12.482Z,-48
2018-06-07T00:19:39.443Z,-49
2018-06-07T00:22:06.436Z,-49
2018-06-07T00:24:33.522Z,-48
2018-06-07T00:27:00.443Z,-47
2018-06-07T00:29:27.535Z,-48
2018-06-07T00:31:54.455Z,-47
2018-06-07T00:34:21.503Z,-48
2018-06-07T00:36:48.423Z,-45
2018-06-07T00:39:15.474Z,-46
2018-06-07T00:41:42.395Z,-46
2018-06-07T00:44:09.358Z,-46
2018-06-07T00:46:36.295Z,-46
2018-06-07T00:49:03.299Z,-46
2018-06-07T00:51:30.272Z,-47
2018-06-07T00:53:57.223Z,-46
2018-06-07T00:56:35.719Z,-46
2018-06-07T00:59:02.726Z,-46
2018-06-07T01:01:29.650Z,-46
2018-06-07T01:03:56.630Z,-47
2018-06-07T01:06:23.544Z,-46
2018-06-07T01:08:50.538Z,-46
2018-06-07T01:11:17.519Z,-46
2018-06-07T01:13:44.430Z,-46
2018-06-07T01:16:11.498Z,-47
2018-06-07T01:18:38.502Z,-46
2018-06-07T01:21:05.978Z,-46
2018-06-07T01:23:32.906Z,-47
2018-06-07T01:25:59.995Z,-46
2018-06-07T01:28:26.920Z,-47
2018-06-07T01:30:59.523Z,-46
2018-06-07T01:33:38.390Z,-46
2018-06-07T01:36:05.347Z,-46
2018-06-07T01:38:43.942Z,-46
2018-06-07T01:41:11.263Z,-46
2018-06-07T01:43:38.382Z,-46
2018-06-07T01:46:05.350Z,-47
2018-06-07T01:48:32.295Z,-47
2018-06-07T01:50:59.316Z,-47
2018-06-07T01:53:26.336Z,-46
2018-06-07T01:55:53.321Z,-47
2018-06-07T01:58:20.235Z,-46
2018-06-07T02:00:47.184Z,-47
2018-06-07T02:03:14.131Z,-47
2018-06-07T02:05:41.195Z,-46
2018-06-07T02:08:08.168Z,-46
2018-06-07T02:10:35.215Z,-47
2018-06-07T02:13:02.135Z,-46
2018-06-07T02:15:29.132Z,-46
2018-06-07T02:17:56.071Z,-47
2018-06-07T02:20:23.111Z,-46
2018-06-07T02:22:50.051Z,-46
2018-06-07T02:25:17.067Z,-46
2018-06-07T02:27:44.062Z,-47
2018-06-07T02:30:11.031Z,-47
2018-06-07T02:32:37.976Z,-46
2018-06-07T02:35:04.972Z,-46
2018-06-07T02:37:31.892Z,-46
2018-06-07T02:39:58.840Z,-46
2018-06-07T02:42:25.863Z,-46
2018-06-07T02:44:52.874Z,-46
2018-06-07T02:47:19.796Z,-46
2018-06-07T02:49:46.739Z,-47
2018-06-07T02:52:13.675Z,-47
2018-06-07T02:54:40.616Z,-47
2018-06-07T02:57:07.575Z,-46
2018-06-07T02:59:34.486Z,-46
2018-06-07T03:02:01.436Z,-46
2018-06-07T03:04:28.362Z,-46
2018-06-07T03:06:55.275Z,-46
2018-06-07T03:09:22.212Z,-46
2018-06-07T03:11:49.490Z,-46
2018-06-07T03:14:16.408Z,-46
2018-06-07T03:16:43.575Z,-48
2018-06-07T03:19:10.686Z,-46
2018-06-07T03:21:37.795Z,-46
2018-06-07T03:24:04.731Z,-46
2018-06-07T03:26:31.802Z,-46
2018-06-07T03:28:58.772Z,-46
2018-06-07T03:31:25.816Z,-46
2018-06-07T03:33:52.695Z,-48
2018-06-07T03:36:19.629Z,-48
2018-06-07T03:38:46.595Z,-48
2018-06-07T03:41:13.816Z,-48
2018-06-07T03:43:40.715Z,-48
2018-06-07T03:46:07.659Z,-46
2018-06-07T03:48:34.592Z,-46
2018-06-07T03:51:01.710Z,-46
2018-06-07T03:53:28.623Z,-49
2018-06-07T03:55:55.548Z,-46
2018-06-07T03:58:22.482Z,-46
2018-06-07T04:00:49.422Z,-46
2018-06-07T04:03:16.555Z,-46
2018-06-07T04:05:43.486Z,-46
2018-06-07T04:08:10.434Z,-48
2018-06-07T04:10:38.052Z,-46
2018-06-07T04:13:05.108Z,-46
2018-06-07T04:15:32.072Z,-46
2018-06-07T04:17:59.003Z,-47
2018-06-07T04:20:26.020Z,-46
2018-06-07T04:22:53.343Z,-46
2018-06-07T04:25:20.254Z,-46
2018-06-07T04:27:47.227Z,-46
2018-06-07T04:30:14.146Z,-46
2018-06-07T04:32:41.319Z,-47
2018-06-07T04:35:08.247Z,-46
2018-06-07T04:37:35.250Z,-46
2018-06-07T04:40:02.260Z,-46
2018-06-07T04:42:29.217Z,-47
2018-06-07T04:44:56.143Z,-48
2018-06-07T04:47:23.193Z,-46
2018-06-07T04:49:50.099Z,-46
2018-06-07T04:52:17.199Z,-48
2018-06-07T04:54:44.152Z,-46
2018-06-07T04:57:11.147Z,-48
2018-06-07T04:59:38.070Z,-51
2018-06-07T05:02:05.042Z,-48
2018-06-07T05:04:31.973Z,-49
2018-06-07T05:06:58.908Z,-47
2018-06-07T05:09:25.836Z,-48
2018-06-07T05:11:52.783Z,-48
2018-06-07T05:14:19.726Z,-48
2018-06-07T05:16:46.947Z,-48
2018-06-07T05:19:13.858Z,-48
2018-06-07T05:21:40.810Z,-48
2018-06-07T05:24:07.727Z,-49
2018-06-07T05:26:34.679Z,-48
2018-06-07T05:29:01.673Z,-48
2018-06-07T05:31:28.587Z,-49
2018-06-07T05:33:55.580Z,-49
2018-06-07T05:36:22.490Z,-48
2018-06-07T05:38:49.641Z,-49
2018-06-07T05:41:16.934Z,-49
2018-06-07T05:43:43.861Z,-49
2018-06-07T05:46:10.914Z,-49
2018-06-07T05:48:37.899Z,-50
2018-06-07T05:51:04.825Z,-49
2018-06-07T05:53:31.782Z,-49
2018-06-07T05:55:58.735Z,-52
2018-06-07T05:58:25.728Z,-49
2018-06-07T06:00:52.658Z,-50
2018-06-07T06:03:19.626Z,-50
2018-06-07T06:05:46.548Z,-50
2018-06-07T06:08:13.486Z,-49
2018-06-07T06:10:40.411Z,-49
2018-06-07T06:13:07.380Z,-50
2018-06-07T06:15:34.419Z,-50
2018-06-07T06:18:01.355Z,-49
2018-06-07T06:20:28.283Z,-50
2018-06-07T06:22:55.222Z,-49
2018-06-07T06:25:22.142Z,-49
2018-06-07T06:27:49.168Z,-49
2018-06-07T06:30:16.055Z,-49
2018-06-07T06:32:43.074Z,-49
2018-06-07T06:35:10.007Z,-50
2018-06-07T06:38:47.402Z,-49
2018-06-07T06:41:14.347Z,-50
2018-06-07T06:43:41.346Z,-49
2018-06-07T06:46:08.349Z,-47
2018-06-07T06:48:35.288Z,-48
2018-06-07T06:51:02.722Z,-51
2018-06-07T06:53:30.226Z,-49
2018-06-07T06:55:57.148Z,-48
2018-06-07T06:58:24.127Z,-48
2018-06-07T07:00:51.214Z,-48
2018-06-07T07:03:18.161Z,-48
2018-06-07T07:05:45.092Z,-48
2018-06-07T07:08:12.298Z,-48
2018-06-07T07:10:39.391Z,-48
2018-06-07T07:13:06.335Z,-48
2018-06-07T07:15:33.259Z,-48
2018-06-07T07:18:00.224Z,-48
2018-06-07T07:20:27.172Z,-48
2018-06-07T07:22:54.210Z,-48
2018-06-07T07:25:21.205Z,-48
2018-06-07T07:27:48.779Z,-48
2018-06-07T07:30:16.436Z,-48
2018-06-07T07:32:43.350Z,-49
2018-06-07T07:35:10.295Z,-49
2018-06-07T07:37:37.322Z,-49
2018-06-07T07:40:04.536Z,-50
2018-06-07T07:42:31.495Z,-49
2018-06-07T07:44:58.398Z,-48
2018-06-07T07:47:25.344Z,-49
2018-06-07T07:49:52.324Z,-49
2018-06-07T07:52:19.248Z,-50
2018-06-07T07:54:46.350Z,-49
2018-06-07T07:57:13.271Z,-48
2018-06-07T07:59:40.523Z,-49
2018-06-07T08:02:07.475Z,-49
2018-06-07T08:04:34.469Z,-50
2018-06-07T08:07:01.444Z,-49
2018-06-07T08:09:28.379Z,-50
2018-06-07T08:11:55.515Z,-49
2018-06-07T08:14:22.435Z,-50
2018-06-07T08:16:49.396Z,-51
2018-06-07T08:19:16.311Z,-48
2018-06-07T08:21:44.125Z,-48
2018-06-07T08:24:11.047Z,-48
2018-06-07T08:26:37.959Z,-48
2018-06-07T08:29:04.960Z,-49
2018-06-07T08:31:31.883Z,-49
2018-06-07T08:33:58.806Z,-48
2018-06-07T08:36:25.812Z,-48
2018-06-07T08:38:52.787Z,-48
2018-06-07T08:41:19.727Z,-48
2018-06-07T08:43:46.718Z,-48
2018-06-07T08:46:13.651Z,-49
2018-06-07T08:48:40.603Z,-49
2018-06-07T08:51:07.519Z,-48
2018-06-07T08:53:34.454Z,-48
2018-06-07T08:56:01.484Z,-48
2018-06-07T08:58:28.391Z,-48
2018-06-07T09:00:55.330Z,-48
2018-06-07T09:03:22.260Z,-48
2018-06-07T09:05:49.267Z,-50
2018-06-07T09:08:16.224Z,-48
2018-06-07T09:10:43.319Z,-49
2018-06-07T09:13:10.239Z,-49
2018-06-07T09:15:37.204Z,-49
2018-06-07T09:18:05.566Z,-49
2018-06-07T09:20:32.557Z,-48
2018-06-07T09:22:59.482Z,-49
2018-06-07T09:25:26.427Z,-48
2018-06-07T09:27:53.351Z,-48
2018-06-07T09:30:20.275Z,-48
2018-06-07T09:32:47.299Z,-48
2018-06-07T09:35:14.255Z,-48
2018-06-07T09:37:41.179Z,-49
2018-06-07T09:40:08.155Z,-48
2018-06-07T09:42:35.059Z,-49
2018-06-07T09:45:02.003Z,-49
2018-06-07T09:47:28.925Z,-48
2018-06-07T09:49:55.866Z,-48
2018-06-07T09:52:22.782Z,-48
2018-06-07T09:54:49.731Z,-48
2018-06-07T09:57:16.658Z,-48
2018-06-07T09:59:43.603Z,-48
2018-06-07T10:02:10.510Z,-48
2018-06-07T10:04:37.462Z,-49
2018-06-07T10:07:04.590Z,-48
2018-06-07T10:09:31.652Z,-49
2018-06-07T10:11:58.639Z,-48
2018-06-07T10:14:25.603Z,-48
2018-06-07T10:16:52.621Z,-48
2018-06-07T10:19:19.615Z,-48
2018-06-07T10:21:46.554Z,-49
2018-06-07T10:24:13.459Z,-50
2018-06-07T10:26:40.415Z,-49
2018-06-07T10:29:07.416Z,-48
2018-06-07T10:31:34.367Z,-49
2018-06-07T10:34:01.276Z,-50
2018-06-07T10:36:28.384Z,-48
2018-06-07T10:38:55.396Z,-48
2018-06-07T10:41:22.347Z,-48
2018-06-07T10:43:49.276Z,-48
2018-06-07T10:46:16.199Z,-48
2018-06-07T10:48:43.139Z,-49
2018-06-07T10:51:10.098Z,-49
2018-06-07T10:53:37.086Z,-48
2018-06-07T10:56:04.203Z,-49
2018-06-07T10:58:31.214Z,-48
2018-06-07T11:00:58.166Z,-49
2018-06-07T11:03:25.096Z,-48
2018-06-07T11:05:52.048Z,-48
2018-06-07T11:08:19.158Z,-48
2018-06-07T11:10:46.094Z,-49
2018-06-07T11:13:13.017Z,-48
2018-06-07T11:15:39.944Z,-48
2018-06-07T11:18:06.871Z,-48
2018-06-07T11:20:33.830Z,-48
2018-06-07T11:23:00.771Z,-48
2018-06-07T11:25:27.752Z,-48
2018-06-07T11:27:55.080Z,-48
2018-06-07T11:30:22.119Z,-48
2018-06-07T11:32:49.192Z,-48
2018-06-07T11:35:16.119Z,-49
2018-06-07T11:37:43.038Z,-49
2018-06-07T11:40:09.992Z,-48
2018-06-07T11:42:36.926Z,-50
2018-06-07T11:45:04.050Z,-49
2018-06-07T11:47:31.056Z,-50
2018-06-07T11:49:58.106Z,-48
2018-06-07T11:52:25.060Z,-48
2018-06-07T11:54:52.115Z,-48
2018-06-07T11:57:19.005Z,-48
2018-06-07T11:59:45.957Z,-48
2018-06-07T12:02:12.927Z,-48
2018-06-07T12:04:39.859Z,-49
2018-06-07T12:07:06.795Z,-49
2018-06-07T12:09:33.707Z,-49
2018-06-07T12:12:00.651Z,-48
2018-06-07T12:14:27.579Z,-48
2018-06-07T12:16:54.623Z,-49
2018-06-07T12:19:21.548Z,-48
2018-06-07T12:21:48.530Z,-49
2018-06-07T12:24:15.438Z,-49
2018-06-07T12:26:42.408Z,-49
2018-06-07T12:29:09.390Z,-49
2018-06-07T12:31:36.318Z,-48
2018-06-07T12:34:03.271Z,-49
2018-06-07T12:36:30.170Z,-49
2018-06-07T12:38:57.103Z,-49
2018-06-07T12:41:24.057Z,-48
2018-06-07T12:43:51.587Z,-50
2018-06-07T12:46:18.514Z,-50
2018-06-07T12:48:45.451Z,-50
2018-06-07T12:51:12.431Z,-50
2018-06-07T12:53:39.410Z,-49
2018-06-07T12:56:06.323Z,-49
2018-06-07T12:58:33.331Z,-48
2018-06-07T13:01:00.265Z,-48
2018-06-07T13:03:27.295Z,-48
2018-06-07T13:05:54.206Z,-49
2018-06-07T13:08:21.202Z,-48
2018-06-07T13:10:48.168Z,-48
2018-06-07T13:13:15.119Z,-48
2018-06-07T13:15:42.049Z,-49
2018-06-07T13:18:09.053Z,-49
2018-06-07T13:20:35.945Z,-48
2018-06-07T13:23:02.915Z,-50
2018-06-07T13:25:29.847Z,-50
2018-06-07T13:27:56.770Z,-48
2018-06-07T13:30:23.815Z,-48
2018-06-07T13:32:50.769Z,-48
2018-06-07T13:35:17.728Z,-48
2018-06-07T13:37:44.655Z,-50
2018-06-07T13:40:11.746Z,-50
2018-06-07T13:42:38.658Z,-49
2018-06-07T13:45:05.647Z,-49
2018-06-07T13:47:32.563Z,-50
2018-06-07T13:49:59.520Z,-49
2018-06-07T13:52:26.452Z,-49
2018-06-07T13:54:53.419Z,-50
2018-06-07T13:57:20.408Z,-49
2018-06-07T13:59:47.397Z,-50
2018-06-07T14:02:14.334Z,-50
2018-06-07T14:04:41.242Z,-50
2018-06-07T14:07:08.178Z,-49
2018-06-07T14:09:35.238Z,-49
2018-06-07T14:12:02.179Z,-52
2018-06-07T14:14:29.159Z,-50
2018-06-07T14:16:56.135Z,-49
2018-06-07T14:19:23.098Z,-50
2018-06-07T14:21:50.019Z,-50
2018-06-07T14:24:16.952Z,-50
2018-06-07T14:26:43.926Z,-47
2018-06-07T14:29:10.894Z,-50
2018-06-07T14:31:37.799Z,-46
2018-06-07T14:34:04.931Z,-47
2018-06-07T14:36:31.843Z,-50
2018-06-07T14:38:58.779Z,-48
2018-06-07T14:41:25.718Z,-49
2018-06-07T14:43:52.684Z,-49
2018-06-07T14:46:19.670Z,-49
2018-06-07T14:48:46.693Z,-48
2018-06-07T14:51:13.642Z,-49
2018-06-07T14:53:40.620Z,-48
2018-06-07T14:56:07.533Z,-49
2018-06-07T14:58:34.506Z,-49
2018-06-07T15:01:01.443Z,-48
2018-06-07T15:03:28.395Z,-48
2018-06-07T15:05:55.408Z,-48
2018-06-07T15:08:22.343Z,-49
2018-06-07T15:10:49.253Z,-47
2018-06-07T15:13:16.174Z,-49
2018-06-07T15:15:43.105Z,-49
2018-06-07T15:18:10.088Z,-49
2018-06-07T15:20:37.022Z,-50
2018-06-07T15:23:04.004Z,-50
2018-06-07T15:25:30.935Z,-49
2018-06-07T15:27:57.896Z,-50
2018-06-07T15:30:24.820Z,-48
2018-06-07T15:32:51.734Z,-49
2018-06-07T15:35:18.686Z,-49
2018-06-07T15:37:45.616Z,-49
2018-06-07T15:40:12.686Z,-49
2018-06-07T15:42:39.590Z,-49
2018-06-07T15:45:06.559Z,-52
2018-06-07T15:47:33.503Z,-51
2018-06-07T15:50:00.440Z,-51
2018-06-07T15:52:27.362Z,-49
2018-06-07T15:54:54.293Z,-56
2018-06-07T15:57:21.221Z,-50
2018-06-07T15:59:48.213Z,-49
2018-06-07T16:02:15.116Z,-50
2018-06-07T16:04:42.055Z,-49
2018-06-07T16:07:09.120Z,-50
2018-06-07T16:09:36.187Z,-50
2018-06-07T16:12:03.156Z,-51
2018-06-07T16:14:30.110Z,-50
2018-06-07T16:16:57.092Z,-49
2018-06-07T16:19:24.034Z,-48
2018-06-07T16:21:51.515Z,-48
2018-06-07T16:24:18.525Z,-48
2018-06-07T16:26:45.447Z,-48
2018-06-07T16:29:12.715Z,-48
2018-06-07T16:31:39.769Z,-48
2018-06-07T16:34:06.748Z,-48
2018-06-07T16:36:33.666Z,-49
2018-06-07T16:39:00.807Z,-52
2018-06-07T16:41:27.779Z,-49
2018-06-07T16:43:54.703Z,-48
2018-06-07T16:46:21.667Z,-48
2018-06-07T16:48:48.587Z,-49
2018-06-07T16:51:15.503Z,-48
2018-06-07T16:53:42.568Z,-48
2018-06-07T16:56:09.522Z,-49
2018-06-07T16:58:36.444Z,-49
2018-06-07T17:01:03.602Z,-50
2018-06-07T17:03:30.522Z,-49
2018-06-07T17:05:57.464Z,-49
2018-06-07T17:08:24.370Z,-48
2018-06-07T17:10:51.360Z,-49
2018-06-07T17:13:18.291Z,-48
2018-06-07T17:15:45.235Z,-48
2018-06-07T17:18:12.286Z,-49
2018-06-07T17:20:39.239Z,-48
2018-06-07T17:23:06.508Z,-48
2018-06-07T17:25:33.443Z,-50
2018-06-07T17:28:00.375Z,-49
2018-06-07T17:30:27.439Z,-49
2018-06-07T17:32:54.415Z,-48
2018-06-07T17:35:21.371Z,-49
2018-06-07T17:37:48.274Z,-48
2018-06-07T17:40:15.215Z,-48
2018-06-07T17:42:42.150Z,-48
2018-06-07T17:45:09.115Z,-49
2018-06-07T17:47:36.058Z,-49
2018-06-07T17:50:03.055Z,-48
2018-06-07T17:52:30.035Z,-49
2018-06-07T17:54:57.131Z,-48
2018-06-07T17:57:24.050Z,-49
2018-06-07T17:59:51.011Z,-48
2018-06-07T18:02:18.065Z,-48
2018-06-07T18:04:45.008Z,-48
2018-06-07T18:07:11.937Z,-49
2018-06-07T18:09:38.866Z,-50
2018-06-07T18:12:05.786Z,-49
2018-06-07T18:14:32.695Z,-48
2018-06-07T18:16:59.698Z,-48
2018-06-07T18:19:26.692Z,-48
2018-06-07T18:21:53.832Z,-49
2018-06-07T18:24:20.776Z,-48
2018-06-07T18:26:47.730Z,-49
2018-06-07T18:29:14.654Z,-49
2018-06-07T18:31:41.624Z,-49
2018-06-07T18:34:08.559Z,-48
2018-06-07T18:36:35.515Z,-49
2018-06-07T18:39:02.579Z,-48
2018-06-07T18:41:29.644Z,-49
2018-06-07T18:43:56.554Z,-48
2018-06-07T18:46:23.513Z,-48
2018-06-07T18:48:50.528Z,-48
2018-06-07T18:51:17.459Z,-48
2018-06-07T18:53:44.615Z,-48
2018-06-07T18:56:11.554Z,-48
2018-06-07T18:58:38.495Z,-48
2018-06-07T19:01:05.431Z,-48
2018-06-07T19:03:32.351Z,-48
2018-06-07T19:05:59.275Z,-48
2018-06-07T19:08:26.329Z,-48
2018-06-07T19:10:53.260Z,-47
2018-06-07T19:13:25.899Z,-48
2018-06-07T19:15:52.896Z,-49
2018-06-07T19:18:19.816Z,-48
2018-06-07T19:20:53.862Z,-49
2018-06-07T19:23:21.314Z,-49
2018-06-07T19:25:54.036Z,-47
2018-06-07T19:28:20.903Z,-48
2018-06-07T19:30:47.842Z,-47
2018-06-07T19:33:20.690Z,-48
2018-06-07T19:35:47.692Z,-47
2018-06-07T19:38:14.659Z,-48
2018-06-07T19:40:47.602Z,-47
2018-06-07T19:43:14.677Z,-48
2018-06-07T19:45:41.727Z,-47
2018-06-07T19:48:08.643Z,-47
2018-06-07T19:50:35.647Z,-48
2018-06-07T19:53:02.862Z,-48
2018-06-07T19:55:29.843Z,-48
2018-06-07T19:57:56.864Z,-47
2018-06-07T20:00:23.916Z,-47
2018-06-07T20:02:50.864Z,-48
2018-06-07T20:05:17.879Z,-48
2018-06-07T20:07:44.834Z,-48
2018-06-07T20:10:11.756Z,-48
2018-06-07T20:12:38.755Z,-48
2018-06-07T20:15:05.710Z,-48
2018-06-07T20:17:32.803Z,-49
2018-06-07T20:19:59.720Z,-49
2018-06-07T20:22:26.759Z,-48
2018-06-07T20:24:53.804Z,-49
2018-06-07T20:27:20.727Z,-49
2018-06-07T20:29:47.639Z,-49
2018-06-07T20:32:14.623Z,-49
2018-06-07T20:34:41.594Z,-49
2018-06-07T20:37:08.539Z,-49
2018-06-07T20:39:35.458Z,-49
2018-06-07T20:42:02.459Z,-49
2018-06-07T20:44:29.404Z,-49
2018-06-07T20:46:56.420Z,-49
2018-06-07T20:49:23.347Z,-48
2018-06-07T20:51:50.275Z,-48
2018-06-07T20:54:17.179Z,-48
2018-06-07T20:56:44.167Z,-48
2018-06-07T20:59:11.188Z,-48
2018-06-07T21:01:38.051Z,-48
2018-06-07T21:04:05.039Z,-48
2018-06-07T21:06:32.023Z,-48
2018-06-07T21:08:58.971Z,-48
2018-06-07T21:11:25.916Z,-48
2018-06-07T21:13:52.903Z,-48
2018-06-07T21:16:19.831Z,-48
2018-06-07T21:18:46.887Z,-48
2018-06-07T21:21:13.824Z,-48
2018-06-07T21:23:40.759Z,-49
2018-06-07T21:26:07.678Z,-48
2018-06-07T21:28:34.662Z,-50
2018-06-07T21:31:01.580Z,-49
2018-06-07T21:33:28.506Z,-48
2018-06-07T21:35:55.500Z,-49
2018-06-07T21:38:22.427Z,-48
2018-06-07T21:40:49.367Z,-48
2018-06-07T21:43:16.327Z,-48
2018-06-07T21:45:43.353Z,-48
2018-06-07T21:48:10.274Z,-48
2018-06-07T21:50:37.198Z,-48
2018-06-07T21:53:04.266Z,-48
2018-06-07T21:55:31.308Z,-48
2018-06-07T21:57:58.356Z,-48
2018-06-07T22:00:25.319Z,-48
2018-06-07T22:02:52.290Z,-48
2018-06-07T22:05:19.235Z,-48
2018-06-07T22:07:46.168Z,-47
2018-06-07T22:10:13.139Z,-47
2018-06-07T22:12:40.198Z,-48
2018-06-07T22:15:07.216Z,-48
2018-06-07T22:17:34.151Z,-47
2018-06-07T22:20:01.207Z,-48
2018-06-07T22:22:29.034Z,-47
2018-06-07T22:24:56.203Z,-47
2018-06-07T22:27:23.158Z,-47
2018-06-07T22:29:50.087Z,-47
2018-06-07T22:32:16.991Z,-47
2018-06-07T22:34:43.925Z,-47
2018-06-07T22:37:10.851Z,-47
2018-06-07T22:39:37.784Z,-47
2018-06-07T22:42:04.687Z,-47
2018-06-07T22:44:31.619Z,-48
2018-06-07T22:46:58.675Z,-48
2018-06-07T22:49:25.603Z,-47
2018-06-07T22:51:52.543Z,-47
2018-06-07T22:54:19.639Z,-49
2018-06-07T22:56:46.558Z,-48
2018-06-07T22:59:13.484Z,-48
2018-06-07T23:01:40.460Z,-48
2018-06-07T23:04:07.390Z,-48
2018-06-07T23:06:34.413Z,-47
2018-06-07T23:09:02.031Z,-47
2018-06-07T23:11:29.051Z,-47
2018-06-07T23:13:55.996Z,-47
2018-06-07T23:16:22.936Z,-47
2018-06-07T23:18:49.847Z,-47
2018-06-07T23:21:16.798Z,-48
2018-06-07T23:23:43.704Z,-49
2018-06-07T23:26:10.631Z,-48
2018-06-07T23:28:38.486Z,-49
2018-06-07T23:31:05.448Z,-48
2018-06-07T23:33:32.353Z,-47
2018-06-07T23:35:59.282Z,-48
2018-06-07T23:38:26.185Z,-48
2018-06-07T23:40:53.311Z,-48
2018-06-07T23:43:20.227Z,-47
2018-06-07T23:45:47.151Z,-48
2018-06-07T23:48:14.064Z,-48
2018-06-07T23:50:40.997Z,-48
2018-06-07T23:53:07.906Z,-49
2018-06-07T23:55:34.859Z,-48
2018-06-07T23:58:01.799Z,-48
